createdAt,value
2019-03-29T00:00:08.488Z,5.70
2019-03-29T00:01:13.874Z,5.85
2019-03-29T00:02:18.578Z,5.80
2019-03-29T00:03:22.942Z,5.55
2019-03-29T00:04:27.876Z,5.58
2019-03-29T00:05:32.320Z,6.08
2019-03-29T00:06:37.328Z,5.90
2019-03-29T00:07:42.283Z,5.22
2019-03-29T00:08:46.738Z,5.60
2019-03-29T00:09:51.339Z,6.08
2019-03-29T00:10:56.283Z,6.05
2019-03-29T00:12:00.844Z,5.60
2019-03-29T00:13:06.119Z,5.47
2019-03-29T00:14:10.483Z,5.78
2019-03-29T00:15:15.256Z,6.08
2019-03-29T00:16:19.872Z,6.50
2019-03-29T00:17:24.487Z,7.62
2019-03-29T00:18:29.687Z,7.60
2019-03-29T00:19:34.375Z,7.47
2019-03-29T00:20:38.984Z,7.15
2019-03-29T00:21:43.353Z,6.72
2019-03-29T00:22:48.057Z,6.70
2019-03-29T00:24:05.896Z,7.15
2019-03-29T00:24:59.086Z,6.65
2019-03-29T00:26:03.790Z,6.40
2019-03-29T00:27:08.404Z,6.60
2019-03-29T00:28:13.031Z,6.40
2019-03-29T00:29:17.740Z,6.75
2019-03-29T00:30:22.338Z,6.35
2019-03-29T00:31:26.625Z,6.58
2019-03-29T00:32:31.932Z,7.47
2019-03-29T00:33:36.814Z,6.70
2019-03-29T00:34:42.073Z,7.08
2019-03-29T00:35:46.759Z,7.17
2019-03-29T00:36:52.040Z,6.87
2019-03-29T00:37:56.765Z,6.95
2019-03-29T00:39:01.584Z,6.78
2019-03-29T00:40:07.009Z,6.80
2019-03-29T00:41:11.741Z,6.92
2019-03-29T00:42:17.124Z,6.85
2019-03-29T00:43:21.935Z,6.62
2019-03-29T00:44:26.968Z,6.78
2019-03-29T00:45:31.935Z,6.87
2019-03-29T00:46:36.305Z,6.70
2019-03-29T00:47:40.984Z,7.03
2019-03-29T00:48:45.692Z,7.22
2019-03-29T00:49:50.053Z,6.80
2019-03-29T00:50:54.732Z,7.50
2019-03-29T00:51:59.334Z,7.30
2019-03-29T00:53:04.034Z,7.08
2019-03-29T00:54:08.886Z,7.37
2019-03-29T00:55:13.890Z,7.15
2019-03-29T00:56:18.340Z,7.20
2019-03-29T00:57:22.707Z,7.67
2019-03-29T00:58:27.917Z,7.40
2019-03-29T00:59:32.432Z,7.22
2019-03-29T01:00:37.250Z,7.50
2019-03-29T01:01:41.617Z,7.47
2019-03-29T01:02:46.548Z,7.45
2019-03-29T01:03:51.344Z,7.80
2019-03-29T01:04:55.804Z,7.85
2019-03-29T01:06:00.319Z,7.95
2019-03-29T01:07:05.237Z,7.33
2019-03-29T01:08:10.799Z,7.37
2019-03-29T01:09:15.515Z,7.12
2019-03-29T01:10:19.954Z,7.35
2019-03-29T01:11:24.400Z,7.78
2019-03-29T01:12:28.876Z,7.70
2019-03-29T01:13:33.410Z,7.58
2019-03-29T01:14:38.179Z,7.42
2019-03-29T01:15:42.700Z,7.53
2019-03-29T01:16:47.220Z,7.40
2019-03-29T01:17:52.181Z,7.20
2019-03-29T01:18:56.640Z,7.55
2019-03-29T01:20:01.333Z,7.78
2019-03-29T01:21:06.027Z,7.50
2019-03-29T01:22:10.473Z,7.85
2019-03-29T01:23:15.176Z,7.40
2019-03-29T01:24:20.140Z,7.03
2019-03-29T01:25:24.829Z,7.33
2019-03-29T01:26:29.271Z,7.17
2019-03-29T01:27:33.965Z,7.03
2019-03-29T01:28:38.688Z,7.47
2019-03-29T01:29:43.266Z,7.53
2019-03-29T01:30:48.266Z,7.53
2019-03-29T01:31:53.532Z,7.25
2019-03-29T01:32:59.026Z,7.53
2019-03-29T01:34:03.502Z,7.30
2019-03-29T01:35:09.148Z,7.55
2019-03-29T01:36:14.002Z,7.67
2019-03-29T01:37:19.847Z,7.50
2019-03-29T01:38:24.729Z,7.47
2019-03-29T01:39:29.555Z,7.85
2019-03-29T01:40:35.052Z,7.67
2019-03-29T01:41:39.558Z,8.45
2019-03-29T01:42:44.947Z,7.60
2019-03-29T01:43:49.727Z,7.67
2019-03-29T01:44:54.335Z,7.12
2019-03-29T01:45:58.776Z,8.00
2019-03-29T01:47:04.084Z,7.75
2019-03-29T01:48:08.921Z,7.20
2019-03-29T01:49:13.624Z,7.45
2019-03-29T01:50:18.390Z,7.40
2019-03-29T01:51:23.143Z,7.75
2019-03-29T01:52:27.592Z,7.67
2019-03-29T01:53:32.203Z,8.30
2019-03-29T01:54:36.835Z,8.10
2019-03-29T01:55:41.452Z,7.60
2019-03-29T01:56:45.947Z,8.03
2019-03-29T01:57:50.573Z,7.90
2019-03-29T01:58:55.595Z,7.87
2019-03-29T01:59:59.970Z,8.05
2019-03-29T02:01:04.487Z,7.72
2019-03-29T02:02:08.927Z,7.80
2019-03-29T02:03:13.620Z,7.95
2019-03-29T02:04:18.324Z,8.08
2019-03-29T02:05:22.692Z,8.28
2019-03-29T02:06:27.395Z,8.05
2019-03-29T02:07:32.007Z,7.67
2019-03-29T02:08:37.836Z,7.58
2019-03-29T02:09:42.939Z,7.60
2019-03-29T02:10:47.379Z,7.65
2019-03-29T02:11:52.000Z,7.97
2019-03-29T02:12:56.439Z,7.30
2019-03-29T02:14:00.799Z,7.35
2019-03-29T02:15:05.979Z,8.05
2019-03-29T02:16:10.420Z,7.90
2019-03-29T02:17:15.368Z,6.95
2019-03-29T02:18:20.640Z,7.60
2019-03-29T02:19:25.354Z,7.30
2019-03-29T02:20:29.809Z,7.55
2019-03-29T02:21:34.679Z,7.87
2019-03-29T02:22:39.374Z,7.70
2019-03-29T02:23:44.079Z,7.70
2019-03-29T02:24:49.940Z,7.42
2019-03-29T02:25:54.735Z,7.22
2019-03-29T02:27:00.216Z,7.80
2019-03-29T02:28:06.114Z,7.55
2019-03-29T02:29:11.031Z,7.55
2019-03-29T02:30:15.854Z,7.35
2019-03-29T02:31:25.213Z,7.35
2019-03-29T02:32:27.290Z,7.80
2019-03-29T02:33:31.898Z,7.58
2019-03-29T02:34:36.291Z,7.12
2019-03-29T02:35:41.069Z,7.70
2019-03-29T02:36:45.929Z,7.20
2019-03-29T02:37:50.609Z,7.65
2019-03-29T02:38:56.391Z,7.53
2019-03-29T02:40:01.758Z,7.65
2019-03-29T02:41:06.708Z,7.17
2019-03-29T02:42:11.315Z,7.28
2019-03-29T02:43:15.684Z,7.83
2019-03-29T02:44:20.298Z,7.80
2019-03-29T02:45:25.072Z,7.22
2019-03-29T02:46:29.693Z,7.47
2019-03-29T02:47:34.063Z,7.40
2019-03-29T02:48:38.708Z,7.78
2019-03-29T02:49:43.491Z,6.95
2019-03-29T02:50:47.855Z,7.12
2019-03-29T02:51:52.226Z,7.50
2019-03-29T02:52:56.666Z,6.70
2019-03-29T02:54:01.548Z,6.67
2019-03-29T02:55:06.456Z,6.83
2019-03-29T02:56:11.718Z,7.12
2019-03-29T02:57:16.333Z,6.87
2019-03-29T02:58:21.098Z,7.55
2019-03-29T02:59:25.976Z,7.45
2019-03-29T03:00:30.719Z,7.45
2019-03-29T03:01:35.143Z,6.92
2019-03-29T03:02:39.842Z,6.53
2019-03-29T03:03:44.285Z,6.60
2019-03-29T03:04:48.998Z,6.53
2019-03-29T03:05:53.690Z,6.33
2019-03-29T03:06:58.303Z,6.35
2019-03-29T03:08:02.828Z,6.60
2019-03-29T03:09:13.924Z,6.85
2019-03-29T03:10:13.968Z,6.70
2019-03-29T03:11:18.651Z,6.80
2019-03-29T03:12:23.166Z,6.90
2019-03-29T03:13:27.683Z,7.05
2019-03-29T03:14:32.057Z,6.90
2019-03-29T03:15:36.840Z,7.03
2019-03-29T03:16:41.206Z,7.30
2019-03-29T03:17:45.908Z,6.85
2019-03-29T03:18:50.756Z,6.90
2019-03-29T03:19:55.195Z,6.97
2019-03-29T03:20:59.640Z,6.70
2019-03-29T03:22:04.403Z,6.70
2019-03-29T03:23:09.183Z,6.67
2019-03-29T03:24:13.609Z,6.97
2019-03-29T03:25:18.141Z,6.72
2019-03-29T03:26:22.495Z,6.87
2019-03-29T03:27:26.862Z,6.78
2019-03-29T03:28:31.303Z,6.65
2019-03-29T03:29:35.897Z,7.00
2019-03-29T03:30:40.525Z,6.97
2019-03-29T03:31:45.163Z,6.92
2019-03-29T03:32:49.567Z,7.12
2019-03-29T03:33:54.437Z,6.80
2019-03-29T03:34:59.122Z,6.70
2019-03-29T03:36:03.816Z,7.10
2019-03-29T03:37:08.299Z,6.97
2019-03-29T03:38:12.686Z,6.72
2019-03-29T03:39:30.701Z,7.30
2019-03-29T03:40:23.871Z,7.50
2019-03-29T03:41:28.380Z,7.75
2019-03-29T03:42:33.053Z,6.80
2019-03-29T03:43:37.498Z,16.07
2019-03-29T03:44:42.175Z,7.97
2019-03-29T03:45:46.709Z,8.13
2019-03-29T03:46:51.400Z,7.40
2019-03-29T03:47:56.076Z,7.20
2019-03-29T03:49:01.046Z,8.60
2019-03-29T03:50:06.118Z,8.23
2019-03-29T03:51:11.186Z,7.22
2019-03-29T03:52:15.942Z,7.15
2019-03-29T03:53:20.713Z,7.17
2019-03-29T03:54:25.226Z,7.35
2019-03-29T03:55:30.639Z,8.03
2019-03-29T03:56:35.267Z,7.50
2019-03-29T03:57:40.194Z,7.42
2019-03-29T03:58:45.821Z,7.00
2019-03-29T03:59:51.369Z,7.22
2019-03-29T04:00:59.765Z,7.22
2019-03-29T04:02:04.268Z,7.90
2019-03-29T04:03:09.121Z,7.25
2019-03-29T04:04:13.815Z,7.62
2019-03-29T04:05:18.251Z,7.15
2019-03-29T04:06:23.197Z,7.20
2019-03-29T04:07:27.900Z,7.25
2019-03-29T04:08:32.328Z,6.67
2019-03-29T04:09:49.508Z,7.08
2019-03-29T04:10:43.424Z,7.22
2019-03-29T04:11:48.449Z,7.08
2019-03-29T04:12:53.056Z,6.85
2019-03-29T04:13:57.502Z,7.33
2019-03-29T04:15:02.135Z,7.20
2019-03-29T04:16:06.733Z,7.20
2019-03-29T04:17:11.364Z,7.35
2019-03-29T04:18:16.600Z,7.42
2019-03-29T04:19:21.243Z,7.20
2019-03-29T04:20:25.848Z,7.00
2019-03-29T04:21:30.631Z,7.28
2019-03-29T04:22:34.996Z,7.47
2019-03-29T04:23:39.943Z,7.87
2019-03-29T04:24:45.292Z,7.55
2019-03-29T04:25:49.968Z,7.60
2019-03-29T04:26:54.622Z,8.28
2019-03-29T04:27:59.472Z,7.45
2019-03-29T04:29:05.336Z,7.42
2019-03-29T04:30:10.219Z,7.00
2019-03-29T04:31:15.237Z,7.35
2019-03-29T04:32:19.941Z,7.30
2019-03-29T04:33:24.576Z,7.47
2019-03-29T04:34:29.165Z,7.45
2019-03-29T04:35:33.846Z,7.72
2019-03-29T04:36:38.549Z,8.15
2019-03-29T04:37:42.999Z,8.15
2019-03-29T04:38:47.429Z,7.87
2019-03-29T04:40:06.495Z,8.33
2019-03-29T04:40:58.871Z,8.65
2019-03-29T04:42:03.323Z,8.23
2019-03-29T04:43:07.868Z,8.20
2019-03-29T04:44:12.235Z,9.40
2019-03-29T04:45:16.749Z,7.83
2019-03-29T04:46:21.519Z,8.98
2019-03-29T04:47:26.298Z,8.53
2019-03-29T04:48:30.746Z,9.00
2019-03-29T04:49:35.417Z,8.88
2019-03-29T04:50:40.269Z,9.73
2019-03-29T04:51:45.154Z,9.65
2019-03-29T04:52:49.769Z,10.32
2019-03-29T04:53:54.423Z,10.95
2019-03-29T04:54:59.044Z,10.45
2019-03-29T04:56:03.491Z,10.28
2019-03-29T04:57:08.192Z,9.23
2019-03-29T04:58:12.703Z,8.73
2019-03-29T04:59:17.633Z,9.85
2019-03-29T05:00:22.322Z,9.78
2019-03-29T05:01:26.690Z,9.68
2019-03-29T05:02:31.069Z,9.85
2019-03-29T05:03:35.667Z,9.50
2019-03-29T05:04:40.182Z,9.08
2019-03-29T05:05:44.786Z,8.85
2019-03-29T05:06:49.393Z,9.53
2019-03-29T05:07:54.006Z,9.18
2019-03-29T05:08:58.875Z,9.93
2019-03-29T05:10:03.576Z,10.65
2019-03-29T05:11:08.093Z,10.90
2019-03-29T05:12:12.720Z,12.90
2019-03-29T05:13:17.588Z,10.55
2019-03-29T05:14:21.962Z,11.10
2019-03-29T05:15:26.653Z,10.82
2019-03-29T05:16:31.350Z,11.22
2019-03-29T05:17:36.177Z,11.03
2019-03-29T05:18:40.569Z,11.05
2019-03-29T05:19:45.598Z,11.73
2019-03-29T05:20:50.219Z,11.12
2019-03-29T05:21:54.839Z,11.20
2019-03-29T05:22:59.541Z,11.80
2019-03-29T05:24:04.075Z,11.48
2019-03-29T05:25:08.849Z,12.25
2019-03-29T05:26:13.216Z,14.38
2019-03-29T05:27:18.095Z,15.63
2019-03-29T05:28:22.467Z,13.68
2019-03-29T05:29:27.655Z,13.65
2019-03-29T05:30:32.532Z,14.45
2019-03-29T05:31:37.393Z,12.18
2019-03-29T05:32:42.348Z,10.78
2019-03-29T05:33:47.029Z,9.93
2019-03-29T05:34:51.643Z,9.53
2019-03-29T05:35:56.903Z,9.63
2019-03-29T05:37:01.338Z,9.58
2019-03-29T05:38:06.040Z,13.88
2019-03-29T05:39:11.489Z,11.83
2019-03-29T05:40:15.860Z,10.93
2019-03-29T05:41:20.471Z,12.15
2019-03-29T05:42:24.932Z,11.73
2019-03-29T05:43:29.801Z,11.73
2019-03-29T05:44:34.467Z,11.97
2019-03-29T05:45:38.898Z,16.42
2019-03-29T05:46:43.590Z,25.82
2019-03-29T05:47:48.289Z,20.32
2019-03-29T05:48:52.728Z,24.37
2019-03-29T05:49:57.678Z,13.72
2019-03-29T05:51:02.287Z,14.75
2019-03-29T05:52:07.054Z,14.15
2019-03-29T05:53:11.759Z,16.62
2019-03-29T05:54:16.461Z,19.87
2019-03-29T05:55:31.948Z,17.85
2019-03-29T05:56:27.641Z,18.17
2019-03-29T05:57:32.252Z,15.75
2019-03-29T05:58:36.708Z,16.27
2019-03-29T05:59:41.573Z,14.20
2019-03-29T06:00:46.273Z,13.68
2019-03-29T06:01:50.883Z,14.55
2019-03-29T06:02:55.510Z,13.48
2019-03-29T06:04:00.457Z,13.55
2019-03-29T06:05:05.205Z,13.50
2019-03-29T06:06:10.090Z,16.17
2019-03-29T06:07:14.854Z,15.38
2019-03-29T06:08:19.753Z,15.60
2019-03-29T06:09:24.503Z,16.20
2019-03-29T06:10:29.158Z,13.80
2019-03-29T06:11:33.886Z,14.68
2019-03-29T06:12:38.529Z,13.70
2019-03-29T06:13:43.027Z,14.18
2019-03-29T06:14:47.467Z,16.73
2019-03-29T06:15:52.453Z,15.18
2019-03-29T06:16:57.071Z,15.93
2019-03-29T06:18:01.703Z,15.05
2019-03-29T06:19:06.313Z,13.90
2019-03-29T06:20:11.422Z,12.65
2019-03-29T06:21:16.387Z,11.85
2019-03-29T06:22:20.851Z,11.20
2019-03-29T06:23:25.576Z,11.15
2019-03-29T06:24:30.555Z,10.10
2019-03-29T06:25:35.650Z,11.20
2019-03-29T06:26:40.573Z,10.35
2019-03-29T06:27:45.016Z,10.68
2019-03-29T06:28:49.396Z,11.35
2019-03-29T06:29:54.256Z,11.83
2019-03-29T06:30:59.305Z,12.37
2019-03-29T06:32:04.000Z,11.50
2019-03-29T06:33:08.715Z,11.38
2019-03-29T06:34:13.510Z,12.00
2019-03-29T06:35:18.207Z,12.05
2019-03-29T06:36:25.325Z,11.20
2019-03-29T06:37:30.691Z,11.25
2019-03-29T06:38:36.678Z,11.25
2019-03-29T06:39:41.443Z,11.15
2019-03-29T06:40:46.139Z,11.68
2019-03-29T06:41:51.164Z,13.75
2019-03-29T06:42:56.029Z,15.28
2019-03-29T06:44:00.820Z,14.73
2019-03-29T06:45:05.696Z,13.32
2019-03-29T06:46:10.307Z,12.50
2019-03-29T06:47:14.670Z,12.80
2019-03-29T06:48:19.456Z,13.65
2019-03-29T06:49:24.322Z,13.53
2019-03-29T06:50:29.018Z,13.53
2019-03-29T06:51:33.393Z,12.78
2019-03-29T06:52:38.073Z,13.28
2019-03-29T06:53:42.701Z,12.35
2019-03-29T06:54:47.138Z,12.53
2019-03-29T06:55:51.585Z,13.18
2019-03-29T06:56:56.194Z,12.78
2019-03-29T06:58:01.056Z,12.15
2019-03-29T06:59:06.007Z,11.85
2019-03-29T07:00:10.792Z,12.07
2019-03-29T07:01:15.224Z,11.05
2019-03-29T07:02:19.844Z,11.12
2019-03-29T07:03:24.607Z,11.65
2019-03-29T07:04:29.250Z,11.75
2019-03-29T07:05:33.624Z,11.57
2019-03-29T07:06:38.068Z,11.00
2019-03-29T07:07:44.673Z,11.80
2019-03-29T07:08:49.458Z,11.80
2019-03-29T07:09:54.394Z,12.73
2019-03-29T07:10:58.831Z,12.20
2019-03-29T07:12:03.272Z,12.15
2019-03-29T07:13:07.721Z,12.65
2019-03-29T07:14:12.342Z,12.80
2019-03-29T07:15:17.117Z,11.55
2019-03-29T07:16:21.732Z,11.63
2019-03-29T07:17:26.423Z,12.47
2019-03-29T07:18:31.116Z,11.70
2019-03-29T07:19:35.815Z,11.83
2019-03-29T07:20:40.432Z,12.25
2019-03-29T07:21:44.806Z,12.43
2019-03-29T07:22:49.488Z,12.00
2019-03-29T07:23:54.455Z,13.03
2019-03-29T07:24:59.073Z,12.75
2019-03-29T07:26:03.954Z,12.68
2019-03-29T07:27:09.923Z,13.60
2019-03-29T07:28:14.289Z,13.60
2019-03-29T07:29:19.000Z,12.98
2019-03-29T07:30:23.524Z,12.82
2019-03-29T07:31:28.623Z,12.10
2019-03-29T07:32:33.488Z,12.88
2019-03-29T07:33:38.271Z,13.25
2019-03-29T07:34:42.738Z,12.37
2019-03-29T07:35:47.754Z,12.70
2019-03-29T07:36:52.451Z,12.60
2019-03-29T07:37:57.140Z,13.75
2019-03-29T07:39:01.516Z,13.75
2019-03-29T07:40:06.832Z,13.93
2019-03-29T07:41:11.981Z,13.75
2019-03-29T07:42:16.856Z,14.15
2019-03-29T07:43:24.032Z,14.05
2019-03-29T07:44:28.343Z,14.25
2019-03-29T07:45:32.863Z,13.53
2019-03-29T07:46:37.581Z,14.05
2019-03-29T07:47:41.966Z,15.23
2019-03-29T07:48:46.589Z,14.83
2019-03-29T07:49:51.223Z,14.20
2019-03-29T07:50:55.961Z,14.05
2019-03-29T07:52:01.100Z,14.83
2019-03-29T07:53:05.590Z,14.18
2019-03-29T07:54:10.034Z,14.15
2019-03-29T07:55:14.414Z,14.63
2019-03-29T07:56:18.784Z,14.55
2019-03-29T07:57:23.363Z,14.13
2019-03-29T07:58:28.255Z,13.50
2019-03-29T07:59:33.140Z,14.30
2019-03-29T08:00:37.573Z,14.43
2019-03-29T08:01:42.188Z,15.20
2019-03-29T08:02:46.708Z,14.50
2019-03-29T08:03:53.187Z,15.18
2019-03-29T08:04:57.713Z,15.45
2019-03-29T08:06:02.667Z,15.08
2019-03-29T08:07:07.366Z,14.23
2019-03-29T08:08:23.369Z,15.70
2019-03-29T08:09:22.657Z,15.15
2019-03-29T08:10:30.184Z,16.55
2019-03-29T08:11:40.132Z,16.20
2019-03-29T08:12:40.580Z,17.73
2019-03-29T08:13:44.420Z,19.50
2019-03-29T08:14:49.302Z,18.57
2019-03-29T08:15:54.322Z,18.67
2019-03-29T08:16:58.840Z,16.95
2019-03-29T08:18:03.541Z,17.02
2019-03-29T08:19:07.905Z,17.85
2019-03-29T08:20:38.073Z,16.82
2019-03-29T08:21:18.617Z,16.97
2019-03-29T08:22:23.317Z,18.25
2019-03-29T08:23:28.948Z,17.62
2019-03-29T08:24:33.458Z,17.60
2019-03-29T08:25:38.322Z,17.82
2019-03-29T08:26:42.778Z,13.60
2019-03-29T08:27:47.467Z,16.37
2019-03-29T08:28:52.163Z,15.72
2019-03-29T08:29:56.548Z,12.07
2019-03-29T08:31:01.177Z,12.03
2019-03-29T08:32:05.629Z,10.55
2019-03-29T08:33:10.807Z,12.90
2019-03-29T08:34:15.510Z,13.13
2019-03-29T08:35:20.221Z,13.40
2019-03-29T08:36:25.498Z,13.38
2019-03-29T08:37:30.278Z,12.35
2019-03-29T08:38:34.972Z,10.28
2019-03-29T08:39:39.356Z,10.95
2019-03-29T08:40:45.392Z,10.43
2019-03-29T08:41:59.943Z,9.90
2019-03-29T08:42:56.184Z,9.88
2019-03-29T08:44:00.548Z,8.58
2019-03-29T08:45:05.657Z,8.20
2019-03-29T08:46:10.586Z,8.50
2019-03-29T08:47:15.456Z,9.85
2019-03-29T08:48:19.985Z,12.37
2019-03-29T08:49:24.433Z,13.38
2019-03-29T08:50:29.315Z,11.28
2019-03-29T08:51:33.679Z,10.93
2019-03-29T08:52:38.057Z,11.18
2019-03-29T08:53:42.672Z,11.00
2019-03-29T08:54:50.990Z,10.78
2019-03-29T08:55:54.123Z,11.38
2019-03-29T08:56:58.663Z,11.53
2019-03-29T08:58:03.024Z,8.80
2019-03-29T08:59:07.468Z,6.87
2019-03-29T09:00:15.736Z,5.28
2019-03-29T09:01:19.488Z,5.15
2019-03-29T09:02:25.291Z,4.58
2019-03-29T09:03:29.946Z,2.83
2019-03-29T09:04:34.636Z,3.77
2019-03-29T09:05:39.544Z,3.80
2019-03-29T09:06:53.276Z,3.95
2019-03-29T09:07:50.272Z,3.52
2019-03-29T09:08:55.394Z,3.47
2019-03-29T09:09:59.936Z,3.50
2019-03-29T09:11:07.507Z,3.95
2019-03-29T09:12:14.564Z,4.17
2019-03-29T09:13:17.662Z,4.37
2019-03-29T09:14:22.026Z,4.12
2019-03-29T09:15:26.563Z,4.10
2019-03-29T09:16:31.890Z,4.10
2019-03-29T09:17:36.395Z,4.08
2019-03-29T09:18:40.764Z,5.17
2019-03-29T09:19:45.279Z,4.20
2019-03-29T09:20:49.880Z,4.03
2019-03-29T09:21:54.422Z,4.15
2019-03-29T09:22:58.964Z,3.90
2019-03-29T09:24:03.408Z,4.20
2019-03-29T09:25:08.047Z,4.10
2019-03-29T09:26:12.418Z,3.87
2019-03-29T09:27:17.030Z,3.65
2019-03-29T09:28:21.657Z,3.95
2019-03-29T09:29:26.345Z,4.33
2019-03-29T09:30:30.971Z,4.17
2019-03-29T09:31:35.422Z,4.72
2019-03-29T09:32:39.862Z,4.62
2019-03-29T09:33:44.233Z,5.17
2019-03-29T09:34:49.103Z,4.80
2019-03-29T09:35:53.816Z,4.87
2019-03-29T09:36:59.938Z,5.35
2019-03-29T09:38:04.660Z,5.03
2019-03-29T09:39:09.466Z,4.90
2019-03-29T09:40:14.603Z,5.37
2019-03-29T09:41:19.617Z,4.97
2019-03-29T09:42:29.549Z,4.75
2019-03-29T09:43:30.985Z,5.53
2019-03-29T09:44:35.759Z,5.22
2019-03-29T09:45:41.299Z,5.58
2019-03-29T09:46:46.054Z,4.70
2019-03-29T09:47:51.219Z,6.17
2019-03-29T09:48:55.696Z,5.50
2019-03-29T09:50:00.560Z,5.92
2019-03-29T09:51:05.060Z,6.10
2019-03-29T09:52:10.004Z,6.55
2019-03-29T09:53:14.533Z,6.87
2019-03-29T09:54:20.497Z,6.72
2019-03-29T09:55:25.492Z,6.12
2019-03-29T09:56:38.790Z,5.22
2019-03-29T09:57:37.659Z,5.83
2019-03-29T09:58:45.097Z,6.22
2019-03-29T09:59:49.915Z,6.45
2019-03-29T10:00:54.412Z,6.10
2019-03-29T10:01:59.280Z,6.92
2019-03-29T10:03:04.788Z,6.35
2019-03-29T10:04:09.980Z,6.45
2019-03-29T10:05:14.597Z,6.60
2019-03-29T10:06:19.468Z,6.58
2019-03-29T10:07:24.697Z,6.08
2019-03-29T10:08:29.414Z,6.00
2019-03-29T10:09:33.880Z,5.83
2019-03-29T10:10:38.375Z,6.03
2019-03-29T10:11:43.257Z,6.30
2019-03-29T10:12:48.136Z,6.15
2019-03-29T10:13:53.219Z,6.40
2019-03-29T10:14:58.213Z,6.10
2019-03-29T10:16:02.859Z,5.78
2019-03-29T10:17:07.319Z,6.00
2019-03-29T10:18:11.686Z,5.62
2019-03-29T10:19:16.303Z,5.40
2019-03-29T10:20:20.879Z,5.60
2019-03-29T10:21:25.406Z,5.83
2019-03-29T10:22:30.109Z,5.80
2019-03-29T10:23:34.518Z,5.80
2019-03-29T10:24:39.462Z,5.55
2019-03-29T10:25:43.924Z,5.53
2019-03-29T10:26:48.415Z,5.45
2019-03-29T10:27:53.091Z,5.67
2019-03-29T10:28:57.833Z,4.90
2019-03-29T10:30:02.360Z,5.12
2019-03-29T10:31:07.347Z,4.87
2019-03-29T10:32:12.121Z,4.80
2019-03-29T10:33:16.871Z,5.10
2019-03-29T10:34:21.513Z,4.42
2019-03-29T10:35:26.019Z,5.37
2019-03-29T10:36:30.980Z,5.00
2019-03-29T10:37:37.042Z,5.28
2019-03-29T10:38:41.829Z,5.00
2019-03-29T10:39:46.562Z,5.17
2019-03-29T10:40:51.600Z,4.43
2019-03-29T10:41:56.345Z,4.92
2019-03-29T10:43:01.283Z,4.93
2019-03-29T10:44:05.685Z,4.73
2019-03-29T10:45:10.682Z,4.47
2019-03-29T10:46:15.372Z,4.43
2019-03-29T10:47:19.740Z,4.30
2019-03-29T10:48:24.609Z,5.40
2019-03-29T10:49:29.272Z,5.00
2019-03-29T10:50:33.811Z,5.07
2019-03-29T10:51:38.506Z,5.10
2019-03-29T10:52:43.409Z,4.80
2019-03-29T10:53:48.075Z,4.90
2019-03-29T10:54:52.631Z,5.10
2019-03-29T10:55:57.281Z,5.22
2019-03-29T10:57:01.857Z,5.33
2019-03-29T10:58:09.647Z,4.75
2019-03-29T10:59:26.652Z,4.90
2019-03-29T11:00:33.124Z,4.10
2019-03-29T11:01:37.860Z,4.20
2019-03-29T11:02:42.435Z,4.33
2019-03-29T11:03:46.978Z,4.50
2019-03-29T11:04:51.425Z,4.40
2019-03-29T11:05:56.179Z,4.60
2019-03-29T11:07:00.906Z,4.25
2019-03-29T11:08:05.614Z,4.80
2019-03-29T11:09:10.135Z,4.17
2019-03-29T11:10:23.349Z,4.63
2019-03-29T11:11:27.876Z,5.07
2019-03-29T11:12:32.265Z,4.58
2019-03-29T11:13:36.847Z,4.70
2019-03-29T11:14:41.237Z,4.73
2019-03-29T11:15:45.567Z,5.03
2019-03-29T11:16:50.348Z,5.70
2019-03-29T11:17:55.048Z,6.13
2019-03-29T11:18:59.991Z,5.40
2019-03-29T11:20:04.981Z,5.80
2019-03-29T11:21:09.915Z,5.67
2019-03-29T11:22:14.610Z,6.20
2019-03-29T11:23:19.099Z,6.13
2019-03-29T11:24:23.858Z,5.72
2019-03-29T11:25:28.309Z,5.62
2019-03-29T11:26:33.533Z,5.42
2019-03-29T11:27:38.237Z,5.13
2019-03-29T11:28:42.911Z,5.40
2019-03-29T11:29:47.611Z,5.70
2019-03-29T11:30:52.279Z,5.53
2019-03-29T11:31:56.939Z,5.67
2019-03-29T11:33:01.507Z,5.53
2019-03-29T11:34:05.954Z,5.17
2019-03-29T11:35:10.499Z,5.47
2019-03-29T11:36:15.303Z,5.47
2019-03-29T11:37:20.055Z,6.13
2019-03-29T11:38:24.988Z,5.43
2019-03-29T11:39:29.812Z,5.00
2019-03-29T11:40:34.767Z,5.45
2019-03-29T11:41:39.135Z,5.10
2019-03-29T11:42:44.358Z,5.67
2019-03-29T11:43:48.882Z,5.47
2019-03-29T11:44:53.251Z,5.15
2019-03-29T11:45:57.937Z,5.85
2019-03-29T11:47:02.739Z,5.40
2019-03-29T11:48:09.375Z,4.95
2019-03-29T11:49:14.497Z,5.50
2019-03-29T11:50:19.036Z,4.80
2019-03-29T11:51:24.450Z,5.17
2019-03-29T11:52:28.974Z,5.30
2019-03-29T11:53:33.659Z,4.93
2019-03-29T11:54:38.468Z,5.10
2019-03-29T11:55:42.822Z,4.60
2019-03-29T11:56:47.799Z,5.43
2019-03-29T11:57:55.702Z,5.07
2019-03-29T11:58:59.168Z,5.43
2019-03-29T12:00:03.879Z,5.30
2019-03-29T12:01:08.560Z,5.17
2019-03-29T12:02:13.240Z,5.50
2019-03-29T12:03:17.693Z,5.80
2019-03-29T12:04:22.136Z,6.03
2019-03-29T12:05:26.582Z,5.83
2019-03-29T12:06:31.270Z,5.40
2019-03-29T12:07:35.723Z,5.70
2019-03-29T12:08:40.690Z,5.80
2019-03-29T12:09:45.561Z,6.33
2019-03-29T12:10:49.990Z,5.90
2019-03-29T12:11:54.679Z,6.03
2019-03-29T12:12:59.140Z,6.03
2019-03-29T12:14:05.154Z,5.87
2019-03-29T12:15:09.843Z,6.70
2019-03-29T12:16:14.371Z,6.47
2019-03-29T12:17:18.798Z,5.77
2019-03-29T12:18:23.238Z,7.00
2019-03-29T12:19:28.012Z,6.90
2019-03-29T12:20:32.449Z,6.27
2019-03-29T12:21:36.903Z,5.70
2019-03-29T12:22:41.501Z,5.77
2019-03-29T12:23:46.213Z,5.30
2019-03-29T12:24:50.590Z,5.73
2019-03-29T12:25:55.023Z,5.40
2019-03-29T12:26:59.930Z,5.63
2019-03-29T12:28:05.036Z,5.70
2019-03-29T12:29:09.551Z,5.10
2019-03-29T12:30:30.615Z,5.30
2019-03-29T12:31:21.107Z,5.23
2019-03-29T12:32:26.107Z,5.30
2019-03-29T12:33:30.987Z,5.30
2019-03-29T12:34:35.428Z,5.20
2019-03-29T12:35:40.101Z,5.07
2019-03-29T12:36:46.139Z,5.60
2019-03-29T12:37:50.949Z,5.20
2019-03-29T12:38:55.887Z,5.20
2019-03-29T12:40:00.435Z,5.07
2019-03-29T12:41:04.912Z,6.10
2019-03-29T12:42:09.432Z,6.07
2019-03-29T12:43:14.340Z,5.73
2019-03-29T12:44:18.811Z,5.60
2019-03-29T12:45:23.562Z,5.73
2019-03-29T12:46:28.492Z,5.70
2019-03-29T12:47:32.855Z,6.10
2019-03-29T12:48:37.462Z,5.80
2019-03-29T12:49:41.986Z,5.73
2019-03-29T12:50:46.503Z,5.43
2019-03-29T12:51:51.685Z,5.50
2019-03-29T12:52:56.544Z,5.50
2019-03-29T12:54:01.250Z,6.60
2019-03-29T12:55:05.836Z,6.40
2019-03-29T12:56:10.445Z,6.53
2019-03-29T12:57:14.875Z,5.80
2019-03-29T12:58:20.054Z,5.70
2019-03-29T12:59:24.431Z,5.50
2019-03-29T13:00:28.956Z,6.20
2019-03-29T13:01:39.700Z,6.03
2019-03-29T13:02:40.286Z,6.67
2019-03-29T13:03:45.158Z,6.23
2019-03-29T13:04:50.109Z,6.13
2019-03-29T13:05:54.469Z,6.20
2019-03-29T13:06:58.902Z,6.70
2019-03-29T13:08:03.583Z,7.00
2019-03-29T13:09:08.618Z,7.13
2019-03-29T13:10:14.316Z,6.57
2019-03-29T13:11:18.917Z,6.00
2019-03-29T13:12:24.354Z,6.00
2019-03-29T13:13:29.037Z,5.83
2019-03-29T13:14:33.744Z,6.10
2019-03-29T13:15:38.695Z,5.87
2019-03-29T13:16:43.299Z,5.30
2019-03-29T13:17:48.166Z,5.60
2019-03-29T13:18:53.787Z,5.73
2019-03-29T13:19:59.415Z,5.70
2019-03-29T13:21:04.028Z,5.70
2019-03-29T13:22:08.724Z,5.53
2019-03-29T13:23:13.848Z,5.67
2019-03-29T13:24:18.808Z,5.60
2019-03-29T13:25:23.395Z,5.93
2019-03-29T13:26:28.342Z,5.37
2019-03-29T13:27:33.105Z,5.03
2019-03-29T13:28:38.008Z,4.93
2019-03-29T13:29:42.699Z,5.07
2019-03-29T13:30:47.319Z,5.70
2019-03-29T13:31:52.239Z,4.80
2019-03-29T13:32:57.005Z,4.87
2019-03-29T13:34:01.526Z,4.90
2019-03-29T13:35:07.039Z,5.30
2019-03-29T13:36:11.476Z,5.93
2019-03-29T13:37:15.968Z,5.60
2019-03-29T13:38:20.931Z,5.60
2019-03-29T13:39:25.763Z,5.63
2019-03-29T13:40:30.471Z,5.40
2019-03-29T13:41:34.835Z,5.70
2019-03-29T13:42:39.278Z,6.03
2019-03-29T13:43:44.133Z,5.37
2019-03-29T13:44:48.844Z,5.47
2019-03-29T13:45:53.327Z,5.67
2019-03-29T13:46:58.268Z,5.90
2019-03-29T13:48:02.915Z,5.70
2019-03-29T13:49:07.566Z,6.50
2019-03-29T13:50:12.505Z,7.33
2019-03-29T13:51:17.393Z,6.97
2019-03-29T13:52:22.040Z,6.77
2019-03-29T13:53:26.639Z,5.70
2019-03-29T13:54:31.075Z,6.13
2019-03-29T13:55:35.853Z,5.87
2019-03-29T13:56:40.531Z,6.43
2019-03-29T13:57:45.223Z,5.97
2019-03-29T13:58:50.074Z,5.90
2019-03-29T13:59:54.462Z,6.70
2019-03-29T14:00:59.343Z,5.87
2019-03-29T14:02:04.018Z,6.53
2019-03-29T14:03:08.453Z,6.23
2019-03-29T14:04:13.063Z,5.67
2019-03-29T14:05:17.608Z,6.07
2019-03-29T14:06:22.281Z,5.43
2019-03-29T14:07:26.722Z,6.67
2019-03-29T14:08:31.076Z,5.90
2019-03-29T14:09:35.684Z,6.90
2019-03-29T14:10:40.375Z,6.40
2019-03-29T14:11:45.309Z,6.20
2019-03-29T14:12:49.993Z,6.47
2019-03-29T14:13:54.423Z,6.53
2019-03-29T14:15:01.316Z,6.27